ENEV

Details ICAO ENEV (EVE)
Name EVENES
Region Norway
Timezone Europe/Oslo (UTC+1.0)
Plans Departing 42
Arriving 53
Stats Elevation 84 ft / 26 m (AMSL)
Location 68.491300° 16.678109°
Runways 1
Magnetic Variation 7.227° E
Sunrise Unknown / Unknown
Sunset Unknown / Unknown
Advertisement - Login to hide

Runways

ID Width Length Bearing (true) Bearing (mag) Surface Threshold Offset Overrun Length
17 148 ft / 45 m 9,208 ft / 2,807 m 177.60° 170.37° Asphalt 302 ft / 92 m 0 ft / 0 m
35 148 ft / 45 m 9,208 ft / 2,807 m 357.60° 350.37° Asphalt 214 ft / 65 m 925 ft / 282 m

Approach Navaids

Runway Type Ident Frequency Range Bearing (true) Bearing (mag) Slope Elevation
17 Localiser EV 108.90 MHz 18 nm / 33 km 177.60° 170.37° - 84 ft / 26 m (AMSL)
17 Glidescope EV 108.90 MHz 10 nm / 19 km 177.60° 170.37° 3.80° 84 ft / 26 m (AMSL)

Map

Weather


0- 5 10 15 20 25 30 35+ Temperature / ° C

Clouds and Precipitation
Forecast for 2017-12-16 18:00 UTC. Updated 18 minutes ago

Ground ~20,000 ft ~40,000 ft Winds

METAR

ENEV 161250Z 16008KT 9999 FEW011 SCT027 M03/M05 Q0998 RMK WIND 1400FT 15013KT

TAF

Not found

Frequencies

Recorded 126.02 MHz ATIS
Tower 118.00 MHz TWR
Tower 120.10 MHz TWR
Warning: Do not use this data for real-world aviation or navigation. No guarantee of current accuracy is given.